Time;durP1;ratioP1;P1;durP2;ratioP2;P2;SDS_P1;SDS_P2;PMS_P1;PMS_P2;Temp;Humidity;BMP_temperature;BMP_pressure;BME280_temperature;BME280_humidity;BME280_pressure;Samples;Min_cycle;Max_cycle;Signal;HPM_P1;HPM_P2
2022/01/16 00:04:41;;;;;;;16.88;3.63;;;1.70;99.90;;;;;;5089100;28;20274;-66
2022/01/16 00:07:06;;;;;;;11.55;3.72;;;1.70;99.90;;;;;;5089578;28;20024;-67
2022/01/16 00:09:33;;;;;;;8.73;2.83;;;1.60;99.90;;;;;;5094575;28;20028;-67
2022/01/16 00:12:00;;;;;;;13.98;3.50;;;1.50;99.90;;;;;;5090565;28;20066;-66
2022/01/16 00:14:28;;;;;;;16.30;3.05;;;1.50;99.90;;;;;;5104769;28;20047;-67
2022/01/16 00:16:53;;;;;;;13.27;3.45;;;1.50;99.90;;;;;;5088919;28;20028;-66
2022/01/16 00:19:19;;;;;;;22.70;3.75;;;1.40;99.90;;;;;;5091064;28;20063;-66
2022/01/16 00:21:44;;;;;;;16.95;3.22;;;1.40;99.90;;;;;;5089055;28;20028;-66
2022/01/16 00:24:11;;;;;;;13.35;2.80;;;1.50;99.90;;;;;;5106636;28;20059;-66
2022/01/16 00:26:37;;;;;;;10.85;3.00;;;1.40;99.90;;;;;;5109177;28;20115;-66
2022/01/16 00:29:07;;;;;;;12.98;3.17;;;1.50;99.90;;;;;;5091529;28;20059;-66
2022/01/16 00:31:34;;;;;;;14.23;2.97;;;1.50;99.90;;;;;;5091479;28;20102;-67
2022/01/16 00:33:59;;;;;;;12.27;2.85;;;1.50;99.90;;;;;;5106389;28;20037;-66
2022/01/16 00:36:25;;;;;;;12.13;3.42;;;1.50;99.90;;;;;;5096266;28;20445;-66
2022/01/16 00:38:53;;;;;;;10.50;3.08;;;1.50;99.90;;;;;;5089071;28;20050;-66
2022/01/16 00:41:20;;;;;;;15.18;3.15;;;1.50;99.90;;;;;;5088210;28;20035;-66
2022/01/16 00:43:50;;;;;;;13.82;3.55;;;1.50;99.90;;;;;;5102928;28;20110;-66
2022/01/16 00:46:16;;;;;;;16.13;2.50;;;1.40;99.90;;;;;;5092568;28;20043;-66
2022/01/16 00:48:42;;;;;;;18.35;3.25;;;1.40;99.90;;;;;;5094280;28;20135;-66
2022/01/16 00:51:08;;;;;;;14.07;2.70;;;1.40;99.90;;;;;;5096017;28;20135;-67
2022/01/16 00:53:34;;;;;;;11.80;3.05;;;1.40;99.90;;;;;;5105974;28;20471;-66
2022/01/16 00:55:59;;;;;;;15.07;3.45;;;1.40;99.90;;;;;;5108626;28;20186;-66
2022/01/16 00:58:25;;;;;;;13.02;4.20;;;1.30;99.90;;;;;;5091371;28;20020;-66
2022/01/16 01:00:51;;;;;;;11.60;3.13;;;1.30;99.90;;;;;;5101129;28;20031;-67
2022/01/16 01:03:17;;;;;;;13.60;3.42;;;1.30;99.90;;;;;;5086590;28;20155;-67
2022/01/16 01:05:43;;;;;;;9.85;3.70;;;1.30;99.90;;;;;;5096252;28;20424;-67
2022/01/16 01:08:08;;;;;;;12.35;3.20;;;1.30;99.90;;;;;;5090882;28;20043;-67
2022/01/16 01:10:38;;;;;;;14.38;3.60;;;1.30;99.90;;;;;;5107462;28;20346;-67
2022/01/16 01:13:20;;;;;;;11.25;3.47;;;1.30;99.90;;;;;;5095691;28;20215;-67
2022/01/16 01:15:48;;;;;;;10.38;2.75;;;1.40;99.90;;;;;;5086859;28;20048;-67
2022/01/16 01:18:18;;;;;;;14.52;3.38;;;1.40;99.90;;;;;;5092077;28;20028;-67
2022/01/16 01:20:48;;;;;;;15.95;3.47;;;1.30;99.90;;;;;;5108003;28;20380;-67
2022/01/16 01:23:14;;;;;;;16.65;3.55;;;1.30;99.90;;;;;;5086066;28;20024;-67
2022/01/16 01:25:41;;;;;;;15.57;3.85;;;1.30;99.90;;;;;;5107766;28;20499;-67
2022/01/16 01:28:08;;;;;;;14.00;3.40;;;1.40;99.90;;;;;;5092551;28;20072;-67
2022/01/16 01:30:34;;;;;;;14.50;3.28;;;1.40;99.90;;;;;;5108159;28;20031;-68
2022/01/16 01:32:59;;;;;;;15.30;4.45;;;1.40;99.90;;;;;;5086187;28;20487;-68
2022/01/16 01:35:25;;;;;;;18.45;3.65;;;1.30;99.90;;;;;;5095824;28;20038;-67
2022/01/16 01:37:51;;;;;;;6.95;2.63;;;1.30;99.90;;;;;;5092687;28;20472;-67
2022/01/16 01:40:23;;;;;;;17.35;3.35;;;1.30;99.90;;;;;;5106879;28;20122;-67
2022/01/16 01:51:15;;;;;;;10.60;3.03;;;1.40;99.90;;;;;;5082163;28;20480;-67
2022/01/16 01:53:42;;;;;;;12.18;2.70;;;1.40;99.90;;;;;;5092215;28;20034;-67
2022/01/16 01:56:10;;;;;;;16.85;2.72;;;1.40;99.90;;;;;;5086524;28;20561;-67
2022/01/16 01:58:35;;;;;;;13.88;4.05;;;1.40;99.90;;;;;;5094896;28;20020;-67
2022/01/16 02:01:02;;;;;;;19.33;3.78;;;1.40;99.90;;;;;;5106867;28;20035;-67
2022/01/16 02:06:06;;;;;;;15.23;3.72;;;1.30;99.90;;;;;;5105522;28;20042;-67
2022/01/16 02:08:34;;;;;;;13.63;3.65;;;1.30;99.90;;;;;;5105063;28;20059;-66
2022/01/16 02:11:02;;;;;;;8.95;2.53;;;1.30;99.90;;;;;;5088468;28;20516;-67
2022/01/16 02:13:35;;;;;;;16.08;3.15;;;1.40;99.90;;;;;;5105824;28;20514;-66
2022/01/16 02:34:59;;;;;;;21.33;3.88;;;0.80;99.90;;;;;;5107840;28;20042;-66
2022/01/16 02:37:25;;;;;;;14.85;3.78;;;0.70;99.90;;;;;;5089688;28;20399;-67
2022/01/16 02:39:52;;;;;;;13.60;3.85;;;0.70;99.90;;;;;;5087580;28;20152;-67
2022/01/16 02:42:19;;;;;;;11.32;2.88;;;0.80;99.90;;;;;;5095759;28;20096;-67
2022/01/16 02:44:50;;;;;;;16.92;3.83;;;0.70;99.90;;;;;;5104867;28;20479;-67
2022/01/16 02:47:18;;;;;;;12.95;3.40;;;0.80;99.90;;;;;;5089274;28;20028;-67
2022/01/16 02:49:48;;;;;;;10.48;3.72;;;0.80;99.90;;;;;;5089136;28;20040;-67
2022/01/16 02:52:17;;;;;;;20.55;3.42;;;0.90;99.90;;;;;;5108899;28;20036;-67
2022/01/16 02:54:46;;;;;;;14.13;4.10;;;0.90;99.90;;;;;;5086830;28;20544;-63
2022/01/16 02:57:16;;;;;;;21.70;5.18;;;0.90;99.90;;;;;;5108556;28;20471;-64
2022/01/16 02:59:48;;;;;;;17.05;4.28;;;1.00;99.90;;;;;;5087105;28;20242;-64
2022/01/16 03:02:14;;;;;;;14.25;4.30;;;1.00;99.90;;;;;;5088578;28;20028;-64
2022/01/16 03:04:40;;;;;;;14.38;4.13;;;1.00;99.90;;;;;;5089107;28;20034;-64
2022/01/16 03:07:05;;;;;;;17.25;4.82;;;1.00;99.90;;;;;;5108127;28;20036;-64
2022/01/16 03:09:53;;;;;;;25.05;5.38;;;1.10;99.90;;;;;;5087105;28;20105;-64
2022/01/16 03:12:17;;;;;;;17.20;5.72;;;1.10;99.90;;;;;;5088573;28;20036;-64
2022/01/16 03:14:43;;;;;;;18.27;4.97;;;1.10;99.90;;;;;;5088538;28;20386;-63
2022/01/16 03:17:10;;;;;;;19.77;5.07;;;1.10;99.90;;;;;;5107777;28;20531;-64
2022/01/16 03:22:21;;;;;;;21.13;4.90;;;1.10;99.90;;;;;;5088954;28;20043;-64
2022/01/16 03:24:46;;;;;;;13.95;4.68;;;1.10;99.90;;;;;;5087722;28;20024;-64
2022/01/16 03:27:17;;;;;;;20.15;5.13;;;1.10;99.90;;;;;;5107957;28;20028;-64
2022/01/16 03:29:48;;;;;;;25.13;5.35;;;1.10;99.90;;;;;;5104156;28;20054;-63
2022/01/16 03:32:17;;;;;;;31.63;6.43;;;1.10;99.90;;;;;;5088776;28;20502;-64
2022/01/16 03:34:43;;;;;;;13.13;4.15;;;1.00;99.90;;;;;;5088841;28;20027;-64
2022/01/16 03:37:09;;;;;;;16.48;4.65;;;0.90;99.90;;;;;;5107616;28;20031;-64
2022/01/16 03:39:35;;;;;;;26.17;6.03;;;0.90;99.90;;;;;;5086880;28;20045;-63
2022/01/16 03:42:01;;;;;;;21.35;4.80;;;0.70;99.90;;;;;;5097476;28;20430;-63
2022/01/16 03:44:28;;;;;;;27.25;5.55;;;0.70;99.90;;;;;;5086515;28;20024;-64
2022/01/16 03:46:53;;;;;;;25.30;5.38;;;0.60;99.90;;;;;;5090585;28;20032;-64
2022/01/16 03:49:22;;;;;;;21.65;4.68;;;0.50;99.90;;;;;;5107048;28;20028;-64
2022/01/16 03:51:52;;;;;;;18.38;4.45;;;0.40;99.90;;;;;;5086297;28;20054;-64
2022/01/16 03:54:20;;;;;;;20.05;6.13;;;0.20;99.90;;;;;;5108287;28;20016;-64
2022/01/16 03:56:47;;;;;;;22.40;5.32;;;0.10;99.90;;;;;;5086190;28;20032;-64
2022/01/16 03:59:12;;;;;;;27.40;5.90;;;0.10;99.90;;;;;;5108019;28;20020;-64
2022/01/16 04:01:39;;;;;;;12.85;4.07;;;0.00;99.90;;;;;;5087039;28;20035;-64
2022/01/16 04:04:05;;;;;;;18.60;5.53;;;-0.10;99.90;;;;;;5107550;28;20411;-64
2022/01/16 04:06:31;;;;;;;20.80;4.90;;;-0.20;99.90;;;;;;5086638;28;20521;-63
2022/01/16 04:08:57;;;;;;;23.63;5.18;;;-0.20;99.90;;;;;;5107697;28;20044;-64
2022/01/16 04:11:24;;;;;;;16.67;4.65;;;-0.30;99.90;;;;;;5096752;28;20044;-65
2022/01/16 04:14:02;;;;;;;17.33;4.45;;;-0.30;99.90;;;;;;5088288;28;20024;-64
2022/01/16 04:16:28;;;;;;;19.00;4.85;;;-0.40;99.90;;;;;;5087705;28;20122;-63
2022/01/16 04:18:53;;;;;;;29.60;6.60;;;-0.50;99.90;;;;;;5111330;28;20102;-63
2022/01/16 04:21:20;;;;;;;15.10;5.57;;;-0.50;99.90;;;;;;5100524;28;20036;-64
2022/01/16 04:23:47;;;;;;;12.77;3.88;;;-0.60;99.90;;;;;;5091615;28;20084;-64
2022/01/16 04:26:13;;;;;;;22.13;4.88;;;-0.60;99.90;;;;;;5109366;28;20118;-64
2022/01/16 04:28:39;;;;;;;14.60;4.40;;;-0.70;99.90;;;;;;5098268;28;20122;-63
2022/01/16 04:31:04;;;;;;;21.17;5.38;;;-0.70;99.90;;;;;;5109534;28;20146;-64
2022/01/16 04:33:30;;;;;;;19.73;4.75;;;-0.70;99.90;;;;;;5091856;28;20059;-63
2022/01/16 04:35:56;;;;;;;22.55;5.13;;;-0.70;99.90;;;;;;5109096;28;20027;-63
2022/01/16 04:38:22;;;;;;;25.85;5.15;;;-0.70;99.90;;;;;;5111464;28;20058;-64
2022/01/16 04:43:48;;;;;;;16.60;4.85;;;-0.70;99.90;;;;;;5091436;28;20043;-63
2022/01/16 04:46:15;;;;;;;24.92;5.78;;;-0.80;99.90;;;;;;5089604;28;20028;-64
2022/01/16 04:48:41;;;;;;;29.08;5.13;;;-0.80;99.90;;;;;;5110688;28;20315;-63
2022/01/16 04:51:06;;;;;;;23.17;4.55;;;-0.80;99.90;;;;;;5097694;28;20097;-64
2022/01/16 04:53:32;;;;;;;24.75;5.43;;;-0.90;99.90;;;;;;5091380;28;20036;-63
2022/01/16 04:55:57;;;;;;;19.77;4.70;;;-0.90;99.90;;;;;;5108649;28;20544;-63
2022/01/16 04:58:23;;;;;;;21.90;4.95;;;-0.90;99.90;;;;;;5111099;28;20036;-63
2022/01/16 05:00:49;;;;;;;15.68;4.13;;;-0.90;99.90;;;;;;5095051;28;20038;-64
2022/01/16 05:03:14;;;;;;;15.32;4.35;;;-0.90;99.90;;;;;;5111200;28;20073;-63
2022/01/16 05:05:40;;;;;;;27.40;6.03;;;-0.90;99.90;;;;;;5093825;28;20039;-64
2022/01/16 05:08:05;;;;;;;25.58;6.75;;;-0.90;99.90;;;;;;5110844;28;20032;-64
2022/01/16 05:10:32;;;;;;;23.80;5.28;;;-0.90;99.90;;;;;;5092362;28;20479;-64
2022/01/16 05:13:15;;;;;;;15.93;4.18;;;-1.00;99.90;;;;;;5111082;28;20107;-64
2022/01/16 05:18:25;;;;;;;24.17;6.38;;;-1.00;99.90;;;;;;5090636;28;20449;-63
2022/01/16 05:20:50;;;;;;;14.20;4.25;;;-1.00;99.90;;;;;;5108296;28;20027;-63
2022/01/16 05:23:16;;;;;;;18.38;4.03;;;-1.00;99.90;;;;;;5110766;28;20106;-64
2022/01/16 05:25:41;;;;;;;19.98;4.53;;;-1.00;99.90;;;;;;5093490;28;20100;-63
2022/01/16 05:28:06;;;;;;;17.10;3.80;;;-1.00;99.90;;;;;;5107241;28;20047;-63
2022/01/16 05:30:32;;;;;;;18.15;4.80;;;-1.10;99.90;;;;;;5091661;28;20031;-63
2022/01/16 05:32:57;;;;;;;14.93;3.67;;;-1.10;99.90;;;;;;5110636;28;20024;-63
2022/01/16 05:35:23;;;;;;;17.75;4.30;;;-1.10;99.90;;;;;;5089371;28;20066;-63
2022/01/16 05:37:48;;;;;;;19.48;4.40;;;-1.20;99.90;;;;;;5110400;28;20027;-63
2022/01/16 05:40:14;;;;;;;14.27;3.72;;;-1.20;99.90;;;;;;5089555;28;20024;-63
2022/01/16 05:42:39;;;;;;;15.57;3.78;;;-1.20;99.90;;;;;;5096021;28;20035;-63
2022/01/16 05:45:05;;;;;;;9.38;4.03;;;-1.20;99.90;;;;;;5090630;28;20108;-64
2022/01/16 05:47:31;;;;;;;18.30;4.07;;;-1.20;99.90;;;;;;5095670;28;20058;-64
2022/01/16 05:49:56;;;;;;;22.13;4.60;;;-1.30;99.90;;;;;;5109397;28;20482;-64
2022/01/16 05:52:22;;;;;;;17.25;5.05;;;-1.40;99.90;;;;;;5097933;28;20066;-63
2022/01/16 05:54:47;;;;;;;14.75;3.55;;;-1.40;99.90;;;;;;5090442;28;20031;-64
2022/01/16 05:57:13;;;;;;;17.15;3.78;;;-1.40;99.90;;;;;;5107381;28;20030;-64
2022/01/16 05:59:38;;;;;;;26.08;5.18;;;-1.40;99.90;;;;;;5090112;28;20039;-64
2022/01/16 06:02:04;;;;;;;20.40;4.78;;;-1.40;99.90;;;;;;5107360;28;20116;-64
2022/01/16 06:04:30;;;;;;;30.98;5.38;;;-1.50;99.90;;;;;;5090163;28;20036;-64
2022/01/16 06:06:55;;;;;;;11.77;3.40;;;-1.50;99.90;;;;;;5107168;28;20072;-64
2022/01/16 06:09:21;;;;;;;18.85;3.95;;;-1.50;99.90;;;;;;5110253;28;20487;-64
2022/01/16 06:11:46;;;;;;;11.20;4.32;;;-1.60;99.90;;;;;;5093747;28;20035;-64
2022/01/16 06:14:12;;;;;;;27.73;5.32;;;-1.60;99.90;;;;;;5109958;28;20031;-64
2022/01/16 06:16:38;;;;;;;22.05;4.93;;;-1.60;99.90;;;;;;5092622;28;20035;-64
2022/01/16 06:19:04;;;;;;;27.98;6.78;;;-1.50;99.90;;;;;;5110016;28;20101;-64
2022/01/16 06:21:29;;;;;;;16.50;4.28;;;-1.50;99.90;;;;;;5091068;28;20065;-63
2022/01/16 06:23:55;;;;;;;17.58;3.90;;;-1.50;99.90;;;;;;5109647;28;20016;-64
2022/01/16 06:26:20;;;;;;;12.52;3.88;;;-1.50;99.90;;;;;;5090176;28;20040;-64
2022/01/16 06:28:46;;;;;;;13.10;4.28;;;-1.50;99.90;;;;;;5101673;28;20072;-64
2022/01/16 06:31:11;;;;;;;18.45;5.22;;;-1.50;99.90;;;;;;5088234;28;20051;-63
2022/01/16 06:33:37;;;;;;;11.35;3.88;;;-1.50;99.90;;;;;;5109584;28;20023;-64
2022/01/16 06:36:03;;;;;;;20.45;4.28;;;-1.50;99.90;;;;;;5089418;28;20100;-64
2022/01/16 06:38:28;;;;;;;15.18;3.80;;;-1.60;99.90;;;;;;5106683;28;20530;-64
2022/01/16 06:40:54;;;;;;;14.55;4.00;;;-1.50;99.90;;;;;;5089632;28;20032;-64
2022/01/16 06:43:19;;;;;;;13.98;4.28;;;-1.50;99.90;;;;;;5081434;28;20123;-65
2022/01/16 06:45:45;;;;;;;8.93;4.70;;;-1.60;99.90;;;;;;5108369;28;20065;-64
2022/01/16 06:48:10;;;;;;;23.83;4.18;;;-1.60;99.90;;;;;;5087580;28;20039;-64
2022/01/16 06:50:36;;;;;;;7.15;3.20;;;-1.60;99.90;;;;;;5108329;28;20578;-64
2022/01/16 06:53:02;;;;;;;23.40;3.95;;;-1.60;99.90;;;;;;5087250;28;20055;-65
2022/01/16 06:55:27;;;;;;;19.30;5.18;;;-1.60;99.90;;;;;;5108218;28;20027;-63
2022/01/16 06:57:53;;;;;;;16.65;4.15;;;-1.60;99.90;;;;;;5087708;28;20102;-63
2022/01/16 07:00:18;;;;;;;16.17;4.20;;;-1.60;99.90;;;;;;5108230;28;20027;-64
2022/01/16 07:02:44;;;;;;;20.15;5.13;;;-1.60;99.90;;;;;;5087284;28;20481;-63
2022/01/16 07:05:09;;;;;;;15.88;4.82;;;-1.70;99.90;;;;;;5108369;28;20028;-64
2022/01/16 07:07:35;;;;;;;11.45;3.90;;;-1.70;99.90;;;;;;5087135;28;20058;-64
2022/01/16 07:10:01;;;;;;;14.80;4.00;;;-1.70;99.90;;;;;;5107954;28;20027;-64
2022/01/16 07:12:26;;;;;;;10.88;2.80;;;-1.70;99.90;;;;;;5087153;28;20031;-65
2022/01/16 07:14:52;;;;;;;16.15;4.32;;;-1.60;99.90;;;;;;5105534;28;20543;-64
2022/01/16 07:17:17;;;;;;;18.15;4.70;;;-1.60;99.90;;;;;;5098412;28;20023;-64
2022/01/16 07:19:43;;;;;;;19.88;4.90;;;-1.60;99.90;;;;;;5091657;28;20043;-64
2022/01/16 07:22:08;;;;;;;15.07;4.25;;;-1.50;99.90;;;;;;5091818;28;20031;-65
2022/01/16 07:24:34;;;;;;;17.63;5.40;;;-1.50;99.90;;;;;;5084501;28;20047;-64
2022/01/16 07:27:00;;;;;;;17.00;4.55;;;-1.50;99.90;;;;;;5088339;28;20044;-65
2022/01/16 07:29:27;;;;;;;14.68;3.65;;;-1.50;99.90;;;;;;5105278;28;20189;-64
2022/01/16 07:31:53;;;;;;;25.48;5.80;;;-1.40;99.90;;;;;;5093707;28;20040;-65
2022/01/16 07:34:18;;;;;;;15.25;4.55;;;-1.30;99.90;;;;;;5094705;28;20161;-65
2022/01/16 07:36:44;;;;;;;21.33;4.38;;;-1.30;99.90;;;;;;5089086;28;20034;-64
2022/01/16 07:39:09;;;;;;;19.77;4.65;;;-1.30;99.90;;;;;;5098557;28;20055;-64
2022/01/16 07:41:35;;;;;;;22.83;6.32;;;-1.20;99.90;;;;;;5094379;28;20032;-64
2022/01/16 07:44:01;;;;;;;16.02;4.35;;;-1.20;99.90;;;;;;5079284;28;20046;-65
2022/01/16 07:46:27;;;;;;;26.95;5.35;;;-1.10;99.90;;;;;;5087380;28;20025;-65
2022/01/16 07:48:53;;;;;;;13.70;4.57;;;-1.00;99.90;;;;;;5093553;28;20548;-64
2022/01/16 07:51:19;;;;;;;11.63;4.13;;;-1.00;99.90;;;;;;5089907;28;20043;-64
2022/01/16 07:53:44;;;;;;;19.10;5.00;;;-0.90;99.90;;;;;;5109377;28;20028;-64
2022/01/16 07:56:10;;;;;;;19.00;5.78;;;-0.80;99.90;;;;;;5088573;28;20489;-65
2022/01/16 07:58:36;;;;;;;17.23;6.45;;;-0.80;99.90;;;;;;5095384;28;20028;-64
2022/01/16 08:01:02;;;;;;;18.25;6.80;;;-0.70;99.90;;;;;;5094737;28;20383;-64
2022/01/16 08:03:28;;;;;;;18.52;6.97;;;-0.60;99.90;;;;;;5108765;28;20115;-64
2022/01/16 08:05:53;;;;;;;19.05;6.10;;;-0.50;99.90;;;;;;5088264;28;20046;-65
2022/01/16 08:08:19;;;;;;;17.00;6.60;;;-0.40;99.90;;;;;;5108975;28;20843;-64
2022/01/16 08:10:44;;;;;;;18.92;6.80;;;-0.30;99.90;;;;;;5088824;28;20093;-65
2022/01/16 08:13:10;;;;;;;15.50;5.10;;;-0.20;99.90;;;;;;5110298;28;20030;-66
2022/01/16 08:16:16;;;;;;;25.83;7.72;;;-0.10;99.90;;;;;;5095625;28;20379;-65
2022/01/16 08:19:41;;;;;;;19.10;6.57;;;0.00;99.90;;;;;;5105742;28;20031;-65
2022/01/16 08:23:06;;;;;;;17.17;6.97;;;0.30;99.90;;;;;;5091243;28;20032;-63
2022/01/16 08:26:32;;;;;;;17.58;6.88;;;0.40;99.90;;;;;;5103769;28;20042;-65
2022/01/16 08:29:57;;;;;;;11.45;6.15;;;0.60;99.90;;;;;;5091573;28;20052;-65
2022/01/16 08:33:22;;;;;;;26.45;7.80;;;0.90;99.90;;;;;;5089536;28;20063;-64
2022/01/16 08:36:48;;;;;;;22.30;8.10;;;1.10;99.90;;;;;;5103552;28;20486;-65
2022/01/16 08:40:13;;;;;;;22.45;9.50;;;1.30;99.90;;;;;;5091222;28;20170;-64
2022/01/16 08:43:38;;;;;;;16.83;7.65;;;1.40;99.90;;;;;;5102545;28;20031;-63
2022/01/16 08:47:04;;;;;;;19.50;7.97;;;1.50;99.90;;;;;;5095745;28;20450;-62
2022/01/16 08:50:30;;;;;;;19.45;8.32;;;1.60;99.90;;;;;;5109592;28;20035;-62
2022/01/16 08:53:54;;;;;;;18.20;9.00;;;1.60;99.90;;;;;;5109065;28;20040;-63
2022/01/16 08:57:20;;;;;;;22.48;9.07;;;1.60;99.90;;;;;;5097156;28;20044;-68
2022/01/16 09:00:47;;;;;;;26.15;10.85;;;1.60;99.90;;;;;;5108151;28;20051;-68
2022/01/16 09:04:11;;;;;;;33.97;11.32;;;1.60;99.90;;;;;;5104523;28;20036;-68
2022/01/16 09:24:08;;;;;;;28.73;11.70;;;1.50;99.90;;;;;;5146694;27;20041;-57
2022/01/16 09:27:34;;;;;;;24.92;11.73;;;1.60;99.90;;;;;;5126814;27;20092;-70
2022/01/16 09:30:59;;;;;;;26.65;11.95;;;1.60;99.90;;;;;;5140615;27;20030;-60
2022/01/16 09:34:24;;;;;;;29.13;12.85;;;1.70;99.90;;;;;;5141184;27;20624;-70
2022/01/16 09:37:50;;;;;;;25.30;12.18;;;1.70;99.90;;;;;;5137704;27;20031;-70
2022/01/16 09:41:15;;;;;;;32.20;12.75;;;1.80;99.90;;;;;;5142693;27;20168;-68
2022/01/16 09:44:40;;;;;;;25.13;12.20;;;2.00;99.90;;;;;;5123588;27;20411;-66
2022/01/16 09:48:06;;;;;;;27.55;12.02;;;2.20;99.90;;;;;;5142234;27;20091;-66
2022/01/16 09:50:51;;;;;;;28.40;12.27;;;2.20;99.90;;;;;;5138904;27;20058;-68
2022/01/16 09:53:17;;;;;;;25.42;13.07;;;2.30;99.90;;;;;;5128450;27;20065;-67
2022/01/16 09:55:42;;;;;;;25.73;12.88;;;2.30;99.90;;;;;;5144866;27;20027;-66
2022/01/16 09:58:08;;;;;;;22.30;11.93;;;2.30;99.90;;;;;;5146873;27;20062;-67
2022/01/16 10:01:13;;;;;;;24.73;12.80;;;2.30;99.90;;;;;;5143702;27;20030;-67
2022/01/16 10:04:57;;;;;;;24.05;12.27;;;2.30;99.90;;;;;;5125981;28;20035;-67
2022/01/16 10:08:23;;;;;;;30.83;12.23;;;2.40;99.90;;;;;;5125768;28;20035;-67
2022/01/16 10:11:28;;;;;;;34.92;16.05;;;2.50;99.90;;;;;;5138835;27;20042;-66
2022/01/16 10:14:52;;;;;;;28.35;14.50;;;2.50;99.90;;;;;;5125820;27;20047;-67
2022/01/16 10:18:17;;;;;;;26.25;13.85;;;2.50;99.90;;;;;;5139950;27;20035;-66
2022/01/16 10:21:31;;;;;;;25.10;13.02;;;2.60;99.90;;;;;;5134181;27;20039;-64
2022/01/16 10:25:02;;;;;;;29.80;13.18;;;2.80;99.90;;;;;;5139968;27;20486;-68
2022/01/16 10:28:25;;;;;;;25.83;12.32;;;2.90;99.90;;;;;;5140229;27;20039;-68
2022/01/16 10:31:50;;;;;;;25.23;12.68;;;3.00;99.90;;;;;;5118579;27;20551;-66
2022/01/16 10:35:11;;;;;;;30.75;13.48;;;3.00;99.90;;;;;;5130001;27;20031;-60
2022/01/16 10:38:36;;;;;;;27.33;14.55;;;2.90;99.90;;;;;;5126157;27;20518;-62
2022/01/16 10:42:02;;;;;;;27.58;15.70;;;2.80;99.90;;;;;;5127305;27;20032;-62
2022/01/16 10:45:30;;;;;;;28.27;15.88;;;2.90;99.90;;;;;;5128889;27;20138;-63
2022/01/16 10:48:55;;;;;;;32.55;14.48;;;2.80;99.90;;;;;;5130014;27;20035;-62
2022/01/16 10:52:24;;;;;;;26.75;14.68;;;2.80;99.90;;;;;;5127813;27;20402;-62
2022/01/16 10:55:39;;;;;;;27.10;14.15;;;2.80;99.90;;;;;;5120576;27;20027;-58
2022/01/16 10:59:04;;;;;;;25.80;14.57;;;2.70;99.90;;;;;;5125788;27;20043;-59
2022/01/16 11:02:47;;;;;;;29.30;15.38;;;2.70;99.90;;;;;;5125060;27;20039;-58
2022/01/16 11:06:16;;;;;;;29.90;14.63;;;2.70;99.90;;;;;;5124637;27;20027;-60
2022/01/16 11:09:47;;;;;;;29.65;15.73;;;2.70;99.90;;;;;;5129671;27;20521;-59
2022/01/16 11:13:16;;;;;;;28.92;15.75;;;2.60;99.90;;;;;;5124826;27;20035;-64
2022/01/16 11:16:41;;;;;;;29.10;16.00;;;2.60;99.90;;;;;;5124870;27;20095;-63
2022/01/16 11:20:07;;;;;;;27.25;12.93;;;2.50;99.90;;;;;;5109697;28;20051;-66
2022/01/16 11:23:43;;;;;;;27.33;12.93;;;2.40;99.90;;;;;;5126975;27;20035;-63
2022/01/16 11:26:59;;;;;;;33.00;15.35;;;2.30;99.90;;;;;;5116846;27;20104;-62
2022/01/16 11:30:23;;;;;;;27.10;13.85;;;2.30;99.90;;;;;;5129601;27;20034;-63
2022/01/16 11:33:48;;;;;;;36.10;19.65;;;2.30;99.90;;;;;;5123350;27;20027;-66
2022/01/16 11:37:13;;;;;;;28.35;16.08;;;2.30;99.90;;;;;;5122174;27;20115;-63
2022/01/16 11:40:44;;;;;;;24.70;14.30;;;2.30;99.90;;;;;;5123967;27;20039;-63
2022/01/16 11:44:10;;;;;;;27.48;13.75;;;2.30;99.90;;;;;;5119948;27;20031;-61
2022/01/16 11:47:35;;;;;;;26.77;14.35;;;2.30;99.90;;;;;;5105560;27;20066;-62
2022/01/16 11:51:01;;;;;;;26.63;13.13;;;2.30;99.90;;;;;;5126115;27;20123;-63
2022/01/16 11:53:58;;;;;;;35.88;14.93;;;2.30;99.90;;;;;;5109197;28;20088;-63
2022/01/16 11:56:43;;;;;;;29.77;13.93;;;2.20;99.90;;;;;;5120792;27;20089;-63
2022/01/16 11:59:35;;;;;;;27.92;12.82;;;2.20;99.90;;;;;;5108948;28;20043;-63
2022/01/16 12:03:00;;;;;;;26.80;12.85;;;2.20;99.90;;;;;;5112912;27;20115;-63
2022/01/16 12:06:24;;;;;;;26.35;12.43;;;2.20;99.90;;;;;;5114069;27;20035;-63
2022/01/16 12:12:16;;;;;;;25.10;12.32;;;2.20;99.90;;;;;;5117880;27;20030;-63
2022/01/16 12:15:48;;;;;;;24.83;12.00;;;2.20;99.90;;;;;;5111576;27;20122;-63
2022/01/16 12:19:13;;;;;;;36.53;18.25;;;2.30;99.90;;;;;;5112887;27;20098;-63
2022/01/16 12:22:44;;;;;;;32.40;14.50;;;2.30;99.90;;;;;;5113191;27;20043;-65
2022/01/16 12:26:16;;;;;;;35.58;17.08;;;2.30;99.90;;;;;;5114524;27;20028;-63
2022/01/16 12:29:41;;;;;;;33.80;17.63;;;2.40;99.90;;;;;;5113035;27;20386;-63
2022/01/16 12:33:09;;;;;;;25.20;13.45;;;2.50;99.90;;;;;;5108248;28;20031;-65
2022/01/16 12:35:51;;;;;;;29.58;13.60;;;2.50;99.90;;;;;;5124207;27;20039;-65
2022/01/16 12:39:03;;;;;;;28.80;12.93;;;2.60;99.90;;;;;;5108158;28;20138;-64
2022/01/16 12:42:27;;;;;;;36.13;17.45;;;2.60;99.90;;;;;;5122129;27;20042;-65
2022/01/16 12:45:56;;;;;;;29.38;14.50;;;2.60;99.90;;;;;;5123779;27;20405;-66
2022/01/16 12:49:02;;;;;;;;;;;2.60;99.90;;;;;;5121350;27;20482;-63
2022/01/16 12:52:27;;;;;;;27.67;13.27;;;2.60;99.90;;;;;;5106593;27;19922;-65
2022/01/16 12:55:52;;;;;;;31.98;16.05;;;2.60;99.90;;;;;;5119752;27;20027;-66
2022/01/16 12:59:09;;;;;;;26.88;12.02;;;2.60;99.90;;;;;;5117176;27;20055;-65
2022/01/16 13:02:35;;;;;;;28.90;13.77;;;2.70;99.90;;;;;;5120650;27;20537;-67
2022/01/16 13:06:00;;;;;;;23.50;12.77;;;2.70;99.90;;;;;;5118098;27;20169;-65
2022/01/16 13:09:32;;;;;;;31.13;16.23;;;2.80;99.90;;;;;;5118917;27;20043;-64
2022/01/16 13:12:57;;;;;;;25.95;12.18;;;2.80;99.90;;;;;;5122532;27;20047;-64
2022/01/16 13:16:37;;;;;;;22.15;11.25;;;2.80;99.90;;;;;;5111933;27;20106;-64
2022/01/16 13:20:03;;;;;;;27.45;12.93;;;2.80;99.90;;;;;;5121274;27;20054;-65
2022/01/16 13:23:28;;;;;;;27.02;12.48;;;2.70;99.90;;;;;;5124124;28;20299;-65
2022/01/16 13:26:54;;;;;;;23.45;11.63;;;2.70;99.90;;;;;;5109304;28;20035;-64
2022/01/16 13:30:24;;;;;;;31.48;15.32;;;2.70;99.90;;;;;;5118679;28;20474;-67
2022/01/16 13:33:44;;;;;;;30.00;15.07;;;2.70;99.90;;;;;;5123114;28;20039;-63
2022/01/16 13:37:10;;;;;;;38.78;16.27;;;2.80;99.90;;;;;;5115200;27;20035;-65
2022/01/16 13:40:43;;;;;;;39.05;17.77;;;2.70;99.90;;;;;;5119869;27;20075;-65
2022/01/16 13:44:06;;;;;;;38.50;16.08;;;2.70;99.90;;;;;;5119528;28;20128;-66
2022/01/16 13:47:38;;;;;;;28.67;14.98;;;2.70;99.90;;;;;;5123890;28;20046;-62
2022/01/16 13:51:04;;;;;;;33.50;16.13;;;2.70;99.90;;;;;;5121697;28;20038;-64
2022/01/16 13:54:29;;;;;;;32.13;14.82;;;2.70;99.90;;;;;;5116428;28;20474;-62
2022/01/16 13:57:54;;;;;;;29.85;13.00;;;2.80;99.90;;;;;;5122526;28;20125;-63
2022/01/16 14:01:19;;;;;;;29.67;14.27;;;2.80;99.90;;;;;;5116193;27;20051;-63
2022/01/16 14:04:45;;;;;;;35.03;16.42;;;2.80;99.90;;;;;;5120739;27;20390;-64
2022/01/16 14:08:10;;;;;;;35.70;17.50;;;2.80;99.90;;;;;;5119858;27;20121;-64
2022/01/16 14:11:37;;;;;;;37.80;18.10;;;2.90;99.90;;;;;;5126550;27;20031;-64
2022/01/16 14:15:02;;;;;;;34.60;16.48;;;2.90;99.90;;;;;;5124462;27;20448;-63
2022/01/16 14:22:07;;;;;;;26.85;12.32;;;2.90;99.90;;;;;;5117132;27;20406;-62
2022/01/16 14:25:35;;;;;;;34.85;16.60;;;3.00;99.90;;;;;;5122122;27;20036;-63
2022/01/16 14:28:40;;;;;;;;;;;3.00;99.90;;;;;;5128881;27;20035;-64
2022/01/16 14:32:05;;;;;;;32.03;14.80;;;3.00;99.90;;;;;;5121533;27;19980;-63
2022/01/16 14:35:31;;;;;;;38.67;18.60;;;3.00;99.90;;;;;;5125497;27;20071;-63
2022/01/16 14:38:56;;;;;;;29.98;16.13;;;3.00;99.90;;;;;;5123390;27;20645;-64
2022/01/16 14:42:25;;;;;;;40.83;18.73;;;3.00;99.90;;;;;;5118950;27;20045;-64
2022/01/16 14:45:47;;;;;;;37.13;15.48;;;3.00;99.90;;;;;;5125044;27;20038;-64
2022/01/16 14:49:12;;;;;;;35.28;16.42;;;3.00;99.90;;;;;;5118205;27;20031;-64
2022/01/16 14:52:38;;;;;;;35.50;17.10;;;3.10;99.90;;;;;;5125208;27;20394;-65
2022/01/16 14:56:03;;;;;;;36.53;17.50;;;3.10;99.90;;;;;;5121384;27;20110;-64
2022/01/16 14:59:30;;;;;;;26.13;15.23;;;3.10;99.90;;;;;;5109794;28;20677;-59
2022/01/16 15:02:54;;;;;;;35.50;15.18;;;3.10;99.90;;;;;;5125316;27;20032;-58
2022/01/16 15:06:19;;;;;;;43.22;18.85;;;3.10;99.90;;;;;;5128014;27;20037;-59
2022/01/16 15:09:44;;;;;;;35.65;15.07;;;3.10;99.90;;;;;;5111204;28;20502;-58
2022/01/16 15:13:10;;;;;;;35.47;17.25;;;3.10;99.90;;;;;;5129495;27;20105;-58
2022/01/16 15:16:35;;;;;;;28.35;13.32;;;3.20;99.90;;;;;;5123810;27;20039;-58
2022/01/16 15:20:05;;;;;;;34.78;17.75;;;3.20;99.90;;;;;;5125390;27;20051;-58
2022/01/16 15:23:26;;;;;;;41.60;22.08;;;3.20;99.90;;;;;;5128079;27;20042;-59
2022/01/16 15:26:51;;;;;;;38.45;18.63;;;3.20;99.90;;;;;;5127812;27;20406;-59
2022/01/16 15:30:17;;;;;;;35.28;17.08;;;3.20;99.90;;;;;;5128133;27;20035;-57
2022/01/16 15:33:42;;;;;;;41.05;18.73;;;3.20;99.90;;;;;;5125166;27;20043;-59
2022/01/16 15:37:07;;;;;;;38.67;19.17;;;3.30;99.90;;;;;;5123440;27;20166;-59